Portada
METAR-TAF:

METAR-TAF

Aeroports :

Burlington Municipal Airport

Burlington, Wisconsin, Estats Units d'Amèrica

latitud: 42-41-26N, longitud: 088-18-17W, altitud: 237 m

Observació

L'informe es va fer fa 24 minuts, a les 01:15 UTC
Vent calma
Temperatura 24°C
Humitat 69%
Pressió 1013 hPa
Visibilitat: 16.1 km
Núvols disperses a una alçada de 10000 ft

METAR: KBUU 280115Z AUTO 00000KT 10SM SCT100 24/18 A2992 RMK AO2 T02410181

Hora: 20:39 (01:39 UTC)


TAF: manca

Observacions i pronòstics meteorològics de més de 4000 aeroports (METAR i TAF).

Les estacions disponibles són els punts grocs i vermells al mapa.

Posi el ratolí al punt desitjat per veure el nom de l'estació.

Feu clic per veure les observacions i els pronòstics meteorològics.

Per canviar el mapa: feu clic els botons verds amb una creu de color negre per apropar; al botó verd amb un guió per allunyar la imatge; o en les fletxes verdes per a mapes adjacents.


METAR-TAF: